Time;durP1;ratioP1;P1;durP2;ratioP2;P2;SDS_P1;SDS_P2;PMS_P1;PMS_P2;Temp;Humidity;BMP_temperature;BMP_pressure;BME280_temperature;BME280_humidity;BME280_pressure;Samples;Min_cycle;Max_cycle;Signal;HPM_P1;HPM_P2
2023/05/05 00:00:58;;;;;;;4.18;3.20;;;14.70;99.90;;;14.45;97.16;97265.66;5058674;28;20122;-87
2023/05/05 00:03:24;;;;;;;4.72;3.42;;;14.70;99.90;;;14.30;98.69;97244.34;5051557;28;20404;-89
2023/05/05 00:05:53;;;;;;;4.28;3.08;;;14.70;99.90;;;14.30;99.12;97246.09;5053714;28;20067;-87
2023/05/05 00:08:20;;;;;;;3.42;3.03;;;14.60;99.90;;;14.43;99.21;97268.41;5038547;28;20228;-90
2023/05/05 00:10:47;;;;;;;4.32;3.00;;;14.60;99.90;;;14.41;100.00;97264.09;5051709;28;20078;-87
2023/05/05 00:13:13;;;;;;;3.75;2.92;;;14.60;99.90;;;14.33;100.00;97257.41;5061801;28;20118;-88
2023/05/05 00:15:44;;;;;;;3.92;3.20;;;14.60;99.90;;;14.33;100.00;97265.38;5061342;28;20032;-89
2023/05/05 00:18:11;;;;;;;3.72;3.22;;;14.60;99.90;;;14.29;100.00;97261.19;5043479;28;20036;-90
2023/05/05 00:20:37;;;;;;;5.22;3.00;;;14.50;99.90;;;14.25;100.00;97257.00;5055851;28;20078;-88
2023/05/05 00:23:03;;;;;;;4.53;3.40;;;14.50;99.90;;;14.01;100.00;97222.03;5063683;28;20032;-91
2023/05/05 00:25:29;;;;;;;3.47;3.00;;;14.40;99.90;;;14.16;100.00;97254.84;5057816;28;20330;-90
2023/05/05 00:27:55;;;;;;;5.38;3.63;;;14.40;99.90;;;13.98;100.00;97231.94;5056504;28;20036;-87
2023/05/05 00:30:21;;;;;;;3.63;2.80;;;14.40;99.90;;;14.06;100.00;97246.50;5059468;28;20255;-88
2023/05/05 00:32:48;;;;;;;4.50;3.08;;;14.30;99.90;;;13.96;100.00;97241.78;5061077;28;20065;-88
2023/05/05 00:35:15;;;;;;;3.35;2.95;;;14.30;99.90;;;13.97;100.00;97239.03;5061408;28;20537;-88
2023/05/05 00:37:40;;;;;;;3.72;2.90;;;14.30;99.90;;;14.00;100.00;97240.66;5076682;28;20069;-90
2023/05/05 00:40:07;;;;;;;3.78;2.72;;;14.30;99.90;;;13.96;100.00;97229.34;5062081;28;20034;-89
2023/05/05 00:42:46;;;;;;;4.35;3.15;;;14.30;99.90;;;14.05;100.00;97260.72;5054195;28;20052;-88
2023/05/05 00:45:16;;;;;;;4.22;2.97;;;14.30;99.90;;;14.03;100.00;97259.06;5061911;28;20055;-90
2023/05/05 00:47:48;;;;;;;3.83;3.03;;;14.20;99.90;;;13.90;100.00;97235.84;5060838;28;20039;-87
2023/05/05 00:50:29;;;;;;;3.58;2.97;;;14.20;99.90;;;13.90;100.00;97240.31;5063371;28;20085;-88
2023/05/05 00:53:05;;;;;;;4.32;2.78;;;14.20;99.90;;;13.93;100.00;97254.25;5046247;28;20079;-88
2023/05/05 00:55:32;;;;;;;4.88;3.28;;;14.20;99.90;;;13.85;100.00;97243.19;5061915;28;20097;-88
2023/05/05 00:58:00;;;;;;;4.05;2.90;;;14.20;99.90;;;13.92;100.00;97254.34;5057060;28;20409;-90
2023/05/05 01:00:27;;;;;;;4.03;3.28;;;14.10;99.90;;;13.76;100.00;97222.47;5034830;28;20059;-87
2023/05/05 01:02:53;;;;;;;3.88;3.00;;;14.10;99.90;;;13.87;100.00;97236.03;5050221;28;20040;-90
2023/05/05 01:05:20;;;;;;;3.00;2.70;;;14.20;99.90;;;13.96;100.00;97244.41;5045704;28;20081;-87
2023/05/05 01:08:22;;;;;;;3.53;3.10;;;14.20;99.90;;;13.98;100.00;97250.50;5058932;28;20028;-87
2023/05/05 01:10:56;;;;;;;3.83;3.15;;;14.20;99.90;;;14.00;100.00;97243.31;5053697;28;20500;-89
2023/05/05 01:14:05;;;;;;;4.68;3.00;;;14.20;99.90;;;14.06;100.00;97243.84;5056197;28;20180;-90
2023/05/05 01:16:32;;;;;;;6.53;3.15;;;14.30;99.90;;;14.05;100.00;97242.16;5053690;28;20036;-88
2023/05/05 01:19:27;;;;;;;4.20;3.00;;;14.30;99.90;;;14.03;100.00;97238.72;5053237;28;20067;-89
2023/05/05 01:21:59;;;;;;;4.50;2.95;;;14.30;99.90;;;14.11;100.00;97251.56;5054781;28;20036;-88
2023/05/05 01:25:24;;;;;;;3.95;3.10;;;14.30;99.90;;;14.07;100.00;97242.06;5049263;23;20052;-36
2023/05/05 01:28:06;;;;;;;3.58;3.20;;;14.30;99.90;;;14.02;100.00;97244.97;4952546;28;20410;-37
2023/05/05 01:31:17;;;;;;;3.35;2.88;;;14.30;99.90;;;13.94;100.00;97240.06;4981635;28;20029;-39
2023/05/05 01:33:50;;;;;;;4.25;3.15;;;14.20;99.90;;;13.88;100.00;97237.72;5001177;28;20309;-38
2023/05/05 01:36:27;;;;;;;3.65;3.00;;;14.10;99.90;;;13.81;100.00;97231.03;5008143;28;20037;-37
2023/05/05 01:38:58;;;;;;;2.90;2.60;;;14.10;99.90;;;13.77;100.00;97240.09;5038487;22;20044;-41
2023/05/05 01:41:38;;;;;;;3.22;2.90;;;14.00;99.90;;;13.71;100.00;97233.31;5019233;28;20044;-41
2023/05/05 01:44:07;;;;;;;2.90;2.60;;;13.90;99.90;;;13.66;100.00;97242.47;5016438;28;20681;-42
2023/05/05 01:46:35;;;;;;;4.13;2.95;;;13.90;99.90;;;13.61;100.00;97239.19;5019152;28;20039;-42
2023/05/05 01:49:01;;;;;;;3.50;2.95;;;13.80;99.90;;;13.58;100.00;97236.69;5022023;28;20123;-42
2023/05/05 01:51:28;;;;;;;5.40;3.78;;;13.80;99.90;;;13.53;100.00;97243.09;5017290;28;20039;-42
2023/05/05 01:54:00;;;;;;;5.60;3.28;;;13.80;99.90;;;13.55;100.00;97241.22;5019207;28;20029;-43
2023/05/05 01:56:27;;;;;;;3.65;2.83;;;13.80;99.90;;;13.58;100.00;97239.34;5020509;28;20094;-42
2023/05/05 01:58:54;;;;;;;4.05;3.28;;;13.90;99.90;;;13.63;100.00;97239.97;5011139;28;20069;-41
2023/05/05 02:01:23;;;;;;;3.65;2.92;;;13.90;99.90;;;13.64;100.00;97242.53;5011249;28;20054;-42
2023/05/05 02:03:50;;;;;;;3.63;3.10;;;13.90;99.90;;;13.68;100.00;97240.59;5018365;28;20029;-42
2023/05/05 02:06:18;;;;;;;3.97;2.95;;;14.00;99.90;;;13.69;100.00;97248.47;5014628;28;20116;-42
2023/05/05 02:08:45;;;;;;;3.13;2.70;;;14.00;99.90;;;13.70;100.00;97244.00;5016764;28;20049;-42
2023/05/05 02:11:11;;;;;;;6.00;3.05;;;13.90;99.90;;;13.63;100.00;97234.66;5018385;28;20392;-42
2023/05/05 02:13:41;;;;;;;4.63;3.33;;;14.00;99.90;;;13.69;100.00;97248.47;4991727;28;20063;-42
2023/05/05 02:16:08;;;;;;;4.97;2.95;;;13.90;99.90;;;13.62;100.00;97236.47;5003384;28;20683;-42
2023/05/05 02:18:35;;;;;;;3.28;2.95;;;13.90;99.90;;;13.67;100.00;97245.00;5013019;28;20575;-42
2023/05/05 02:21:02;;;;;;;4.78;3.28;;;13.90;99.90;;;13.65;100.00;97246.88;5002854;28;20037;-42
2023/05/05 02:23:29;;;;;;;4.95;3.55;;;13.90;99.90;;;13.63;100.00;97254.06;5017696;28;20036;-41
2023/05/05 02:26:05;;;;;;;4.82;3.10;;;13.90;99.90;;;13.62;100.00;97260.31;5019164;28;21327;-42
2023/05/05 02:28:40;;;;;;;4.03;2.95;;;13.90;99.90;;;13.64;100.00;97255.78;5022880;28;20032;-43
2023/05/05 02:31:08;;;;;;;4.80;3.08;;;13.90;99.90;;;13.69;100.00;97247.56;5023124;28;20052;-42
2023/05/05 02:33:35;;;;;;;3.67;3.00;;;13.90;99.90;;;13.80;100.00;97257.63;5008919;28;20634;-42
2023/05/05 02:36:10;;;;;;;6.85;3.00;;;13.90;99.90;;;13.86;100.00;97262.63;5011961;28;20679;-42
2023/05/05 02:38:42;;;;;;;5.93;2.97;;;14.00;99.90;;;13.89;100.00;97260.66;5006909;28;20468;-44
2023/05/05 02:41:15;;;;;;;4.82;2.72;;;14.00;99.90;;;13.94;100.00;97265.72;5022259;28;20028;-42
2023/05/05 02:43:42;;;;;;;4.20;2.85;;;14.10;99.90;;;14.00;100.00;97270.69;5008642;28;20103;-43
2023/05/05 02:46:08;;;;;;;3.28;2.63;;;14.20;99.90;;;14.07;100.00;97260.63;5013579;28;20587;-42
2023/05/05 02:48:34;;;;;;;3.13;2.70;;;14.20;99.90;;;14.02;100.00;97249.41;5009554;28;20390;-42
2023/05/05 02:50:59;;;;;;;2.72;2.42;;;14.30;99.90;;;14.20;100.00;97269.63;5013306;28;20330;-42
2023/05/05 02:53:26;;;;;;;4.25;2.75;;;14.30;99.90;;;14.21;100.00;97255.44;5013400;28;20044;-42
2023/05/05 02:56:25;;;;;;;4.65;2.83;;;14.40;99.90;;;14.33;100.00;97273.31;5013886;28;20505;-43
2023/05/05 02:59:03;;;;;;;2.85;2.42;;;14.50;99.90;;;14.38;100.00;97273.09;5012375;28;20162;-43
2023/05/05 03:02:07;;;;;;;4.97;2.67;;;14.50;99.90;;;14.47;100.00;97271.75;5016651;28;20037;-42
2023/05/05 03:04:41;;;;;;;4.15;2.30;;;14.60;99.90;;;14.60;100.00;97267.50;5021054;28;20119;-41
2023/05/05 03:07:14;;;;;;;2.67;2.20;;;14.80;99.90;;;14.70;100.00;97274.00;5018718;28;20029;-42
2023/05/05 03:09:54;;;;;;;3.63;2.83;;;14.80;99.90;;;14.79;100.00;97270.00;5016575;28;20037;-42
2023/05/05 03:12:26;;;;;;;4.85;2.67;;;15.00;99.90;;;14.99;100.00;97275.97;5029289;28;20357;-41
2023/05/05 03:14:54;;;;;;;6.68;2.85;;;15.10;99.90;;;14.99;100.00;97284.78;5033514;28;20033;-42
2023/05/05 03:17:21;;;;;;;4.47;2.58;;;15.20;99.90;;;15.05;100.00;97283.59;5022799;28;20061;-41
2023/05/05 03:19:48;;;;;;;4.43;2.97;;;15.20;99.90;;;15.14;100.00;97282.22;5020968;28;20061;-42
2023/05/05 03:22:14;;;;;;;5.25;2.50;;;15.30;99.90;;;15.15;100.00;97284.78;5025376;28;20036;-42
2023/05/05 03:24:40;;;;;;;3.50;2.63;;;15.30;99.90;;;15.13;100.00;97272.50;5018343;28;20040;-42
2023/05/05 03:27:05;;;;;;;5.32;2.40;;;15.30;99.90;;;15.23;100.00;97277.22;5021290;28;20033;-42
2023/05/05 03:29:31;;;;;;;3.80;2.92;;;15.40;99.90;;;15.37;100.00;97273.75;5023743;28;20033;-42
2023/05/05 03:31:58;;;;;;;3.63;2.90;;;15.50;99.90;;;15.38;100.00;97275.50;5019971;28;20806;-42
2023/05/05 03:34:23;;;;;;;3.95;3.15;;;15.60;99.90;;;15.51;100.00;97282.75;5017694;28;20044;-41
2023/05/05 03:36:49;;;;;;;3.45;2.70;;;15.60;99.90;;;15.53;100.00;97271.06;5029124;28;20071;-41
2023/05/05 03:39:15;;;;;;;3.72;2.50;;;15.70;99.90;;;15.54;100.00;97278.09;5031525;28;20855;-42
2023/05/05 03:41:40;;;;;;;3.97;2.50;;;15.70;99.90;;;15.61;100.00;97271.47;5025177;28;20562;-42
2023/05/05 03:44:06;;;;;;;6.70;2.65;;;15.70;99.90;;;15.65;100.00;97267.69;5021763;28;21114;-42
2023/05/05 03:46:32;;;;;;;3.60;2.70;;;15.80;99.90;;;15.62;100.00;97273.16;5017352;28;20072;-41
2023/05/05 03:48:58;;;;;;;4.53;3.00;;;15.80;99.90;;;15.68;100.00;97279.91;5011741;28;20511;-41
2023/05/05 03:51:24;;;;;;;6.88;3.10;;;15.80;99.90;;;15.66;100.00;97281.81;5010971;28;20036;-41
2023/05/05 03:53:50;;;;;;;4.25;3.08;;;15.80;99.90;;;15.64;100.00;97286.38;5020475;28;20132;-42
2023/05/05 03:56:15;;;;;;;4.13;2.58;;;15.80;99.90;;;15.67;100.00;97283.53;5014043;28;20039;-41
2023/05/05 03:58:41;;;;;;;4.40;2.83;;;15.80;99.90;;;15.66;100.00;97280.00;5007392;28;20029;-41
2023/05/05 04:01:07;;;;;;;6.43;3.20;;;15.80;99.90;;;15.61;100.00;97276.78;5015658;28;20040;-42
2023/05/05 04:03:33;;;;;;;3.40;2.60;;;15.80;99.90;;;15.66;100.00;97277.34;5012709;28;20458;-42
2023/05/05 04:05:59;;;;;;;5.15;2.60;;;15.90;99.90;;;15.64;100.00;97297.00;5014006;28;20033;-41
2023/05/05 04:08:24;;;;;;;4.32;2.80;;;15.80;99.90;;;15.69;100.00;97276.34;5016226;28;20120;-42
2023/05/05 04:10:50;;;;;;;3.17;2.70;;;15.80;99.90;;;15.74;100.00;97289.34;5022499;28;20052;-41
2023/05/05 04:13:16;;;;;;;3.20;2.30;;;15.90;99.90;;;15.70;100.00;97287.81;5023116;28;20413;-42
2023/05/05 04:15:45;;;;;;;5.50;2.95;;;15.90;99.90;;;15.73;100.00;97293.81;5018703;28;20033;-42
2023/05/05 04:18:11;;;;;;;2.70;2.50;;;15.90;99.90;;;15.76;100.00;97291.00;5021508;28;20067;-41
2023/05/05 04:20:37;;;;;;;8.07;2.90;;;15.90;99.90;;;15.79;100.00;97284.63;5021028;28;21635;-41
2023/05/05 04:23:03;;;;;;;6.65;2.85;;;16.00;99.90;;;15.82;100.00;97290.63;5020195;28;20262;-41
2023/05/05 04:25:28;;;;;;;4.68;2.70;;;16.00;99.90;;;15.82;100.00;97285.31;5005165;28;20048;-41
2023/05/05 04:27:54;;;;;;;2.63;2.22;;;16.00;99.90;;;15.87;100.00;97282.38;5006153;28;20029;-41
2023/05/05 04:30:20;;;;;;;3.28;2.58;;;16.00;99.90;;;15.90;100.00;97281.31;4995497;28;20040;-41
2023/05/05 04:32:46;;;;;;;3.13;2.40;;;16.00;99.90;;;15.93;100.00;97278.50;5000221;28;20037;-41
2023/05/05 04:35:11;;;;;;;3.60;2.50;;;16.10;99.90;;;15.96;100.00;97278.31;5001142;28;20044;-41
2023/05/05 04:37:37;;;;;;;2.90;2.30;;;16.20;99.90;;;16.00;100.00;97291.31;4998207;28;20037;-41
2023/05/05 04:40:03;;;;;;;2.65;2.08;;;16.20;99.90;;;16.06;100.00;97299.88;5005143;28;20307;-41
2023/05/05 04:42:29;;;;;;;2.92;2.25;;;16.20;99.90;;;16.11;99.29;97295.97;4995382;28;23523;-41
2023/05/05 04:44:55;;;;;;;3.70;2.30;;;16.30;99.90;;;16.15;99.14;97305.50;4997619;28;20044;-42
2023/05/05 04:47:20;;;;;;;2.72;2.10;;;16.30;99.90;;;16.19;99.75;97308.84;4996760;28;20170;-41
2023/05/05 04:49:46;;;;;;;3.92;2.00;;;16.30;99.90;;;16.19;98.61;97307.03;5004756;28;20075;-41
2023/05/05 04:52:12;;;;;;;4.30;2.00;;;16.40;99.90;;;16.23;98.28;97305.88;4999339;28;20036;-40
2023/05/05 04:54:38;;;;;;;4.40;2.00;;;16.40;99.90;;;16.14;97.01;97293.16;5002077;28;20033;-40
2023/05/05 04:57:04;;;;;;;2.75;2.20;;;16.40;99.90;;;16.25;96.61;97308.44;5001926;28;20362;-41
2023/05/05 04:59:29;;;;;;;4.50;2.13;;;16.40;99.90;;;16.24;98.61;97312.09;5002626;28;20030;-40
2023/05/05 05:01:55;;;;;;;3.53;2.25;;;16.40;99.90;;;16.27;97.03;97311.03;4998793;28;22039;-40
2023/05/05 05:04:21;;;;;;;3.58;2.03;;;16.40;99.90;;;16.33;98.23;97315.97;4999433;28;20029;-41
2023/05/05 05:06:47;;;;;;;3.13;1.92;;;16.50;99.90;;;16.38;95.80;97321.84;5001155;28;20036;-41
2023/05/05 05:09:13;;;;;;;3.33;2.22;;;16.60;99.90;;;16.40;96.91;97317.28;5012112;28;20212;-40
2023/05/05 05:11:39;;;;;;;3.90;2.35;;;16.60;99.90;;;16.52;96.57;97321.84;4998215;28;20492;-40
2023/05/05 05:14:04;;;;;;;8.75;2.60;;;16.70;99.90;;;16.57;97.01;97322.44;4997889;28;20099;-41
2023/05/05 05:16:30;;;;;;;7.03;2.05;;;16.70;99.90;;;16.60;95.49;97326.72;4994150;28;20037;-39
2023/05/05 05:23:04;;;;;;;3.92;2.20;;;16.80;99.90;;;16.82;94.48;97339.53;5077932;23;20055;-85
2023/05/05 05:26:04;;;;;;;2.97;1.90;;;17.00;99.90;;;16.33;93.61;97233.47;4967361;28;20140;-87
2023/05/05 05:28:41;;;;;;;2.88;2.10;;;17.00;99.90;;;16.28;94.29;97223.13;4975735;28;20056;-86
2023/05/05 05:35:32;;;;;;;3.15;2.40;;;17.10;99.90;;;16.32;95.46;97239.75;5006720;28;20688;-88
2023/05/05 05:38:38;;;;;;;4.15;2.38;;;17.00;99.90;;;16.34;96.42;97264.47;5001790;28;20044;-87
2023/05/05 05:41:53;;;;;;;3.92;1.95;;;17.00;99.90;;;16.23;96.77;97259.81;5013592;28;20669;-88
2023/05/05 05:45:00;;;;;;;2.10;1.67;;;16.90;99.90;;;16.20;99.38;97260.88;5002368;28;20118;-89
2023/05/05 05:47:50;;;;;;;2.30;2.10;;;16.90;99.90;;;16.29;100.00;97277.19;5013234;28;20076;-87
2023/05/05 05:50:43;;;;;;;3.45;2.30;;;16.90;99.90;;;16.73;100.00;97346.28;5000898;28;20316;-88
2023/05/05 05:56:38;;;;;;;2.40;1.80;;;17.10;99.90;;;17.25;98.36;97351.97;4949739;28;20544;-88
2023/05/05 05:59:36;;;;;;;3.97;2.30;;;17.40;99.90;;;17.26;95.25;97298.53;4943524;28;20756;-90
2023/05/05 06:02:40;;;;;;;4.65;2.20;;;17.80;99.90;;;17.77;93.47;97321.00;4889658;28;20323;-88
2023/05/05 06:05:20;;;;;;;2.63;1.98;;;18.20;99.90;;;17.64;92.09;97257.81;4898871;28;20051;-87
2023/05/05 06:11:53;;;;;;;2.60;1.85;;;18.40;99.90;;;17.58;87.78;97246.72;4960929;28;22332;-91
2023/05/05 06:14:25;;;;;;;3.67;1.70;;;18.50;99.90;;;17.63;89.34;97269.44;4984660;28;20045;-87
2023/05/05 06:24:15;;;;;;;4.32;2.22;;;18.60;99.90;;;18.31;86.85;97321.72;5000365;28;20654;-87
2023/05/05 06:26:41;;;;;;;3.13;2.40;;;18.80;99.90;;;18.31;85.99;97289.69;4965391;28;20040;-87
2023/05/05 06:36:32;;;;;;;5.15;2.00;;;19.40;99.90;;;19.53;86.19;97360.31;4951696;23;20791;-75
2023/05/05 06:39:13;;;;;;;4.32;1.58;;;19.70;99.90;;;19.31;81.41;97287.03;4946476;28;20077;-75
2023/05/05 06:41:39;;;;;;;2.13;1.70;;;19.90;99.90;;;19.78;76.83;97329.94;4952206;28;20056;-76
2023/05/05 06:54:27;;;;;;;3.22;1.40;;;20.10;99.90;;;19.61;75.26;97360.59;5766943;23;20061;-86
2023/05/05 06:56:53;;;;;;;2.33;1.30;;;19.90;99.90;;;19.54;74.91;97365.56;4992026;28;20037;-86
2023/05/05 06:59:18;;;;;;;3.83;1.55;;;19.80;99.90;;;19.41;80.39;97370.09;4981859;28;20127;-87
2023/05/05 07:01:44;;;;;;;3.92;1.63;;;19.80;99.90;;;19.24;74.33;97368.66;4999405;28;21044;-86
2023/05/05 07:04:10;;;;;;;3.15;1.80;;;19.70;99.90;;;19.27;76.27;97368.41;4992131;28;20040;-87
2023/05/05 07:06:36;;;;;;;2.55;1.52;;;19.70;99.90;;;19.15;76.76;97346.13;4982461;28;20025;-87
2023/05/05 07:09:03;;;;;;;2.83;1.50;;;19.60;99.90;;;19.29;77.97;97379.00;4994341;28;20037;-87
2023/05/05 07:11:28;;;;;;;1.90;1.30;;;19.50;99.90;;;19.25;79.85;97370.34;4990033;28;20037;-87
2023/05/05 07:13:54;;;;;;;2.95;1.70;;;19.50;99.90;;;19.16;78.12;97374.53;4993301;28;20681;-87
2023/05/05 07:16:20;;;;;;;2.97;1.38;;;19.50;99.90;;;19.14;76.83;97364.94;5010592;28;20048;-87
2023/05/05 07:18:45;;;;;;;3.28;1.60;;;19.50;99.90;;;19.16;77.59;97361.19;4985737;28;20048;-87
2023/05/05 07:21:11;;;;;;;2.70;1.48;;;19.50;99.90;;;18.98;78.62;97319.75;4999144;28;20037;-87
2023/05/05 07:35:25;;;;;;;2.25;1.58;;;19.40;99.90;;;19.05;83.06;97379.81;5108594;23;20052;-80
2023/05/05 07:48:10;;;;;;;1.50;1.40;;;19.10;99.90;;;19.00;87.39;97408.69;4835878;29;20452;-39
2023/05/05 07:50:35;;;;;;;1.50;1.40;;;19.10;99.90;;;18.91;89.57;97395.97;4856153;29;20033;-40
2023/05/05 07:53:02;;;;;;;2.38;1.58;;;19.10;99.90;;;18.84;92.75;97404.44;4855109;29;20041;-37
2023/05/05 07:55:27;;;;;;;2.80;1.50;;;19.00;99.90;;;18.75;95.96;97409.53;4856006;29;20493;-39
2023/05/05 07:57:53;;;;;;;2.13;1.70;;;19.00;99.90;;;18.59;96.39;97413.28;4852195;29;20052;-40
2023/05/05 08:00:20;;;;;;;3.17;1.80;;;18.80;99.90;;;18.42;98.23;97406.41;4862209;29;20048;-37
2023/05/05 08:02:46;;;;;;;6.32;1.92;;;18.70;99.90;;;18.25;100.00;97414.72;4857220;29;20139;-39
2023/05/05 08:05:12;;;;;;;2.97;2.05;;;18.40;99.90;;;18.01;100.00;97414.56;4856324;29;20400;-40
2023/05/05 08:07:39;;;;;;;3.65;1.75;;;18.20;99.90;;;17.75;100.00;97411.78;4855163;29;20032;-39
2023/05/05 08:10:09;;;;;;;4.28;2.00;;;18.00;99.90;;;17.51;100.00;97415.06;4853462;29;20064;-39
2023/05/05 08:12:35;;;;;;;3.10;1.88;;;17.70;99.90;;;17.25;100.00;97410.59;4851483;29;20127;-40
2023/05/05 08:15:02;;;;;;;3.42;1.73;;;17.50;99.90;;;17.12;100.00;97410.50;4859138;29;20036;-39
2023/05/05 08:17:27;;;;;;;2.35;1.70;;;17.30;99.90;;;16.97;100.00;97414.97;4852240;29;20036;-39
2023/05/05 08:19:53;;;;;;;2.92;2.17;;;17.20;99.90;;;16.89;100.00;97412.81;4856776;29;20083;-39
2023/05/05 08:22:20;;;;;;;2.55;1.85;;;17.10;99.90;;;16.86;100.00;97410.31;4858738;29;20032;-39
2023/05/05 08:24:46;;;;;;;3.03;1.70;;;17.00;99.90;;;16.89;100.00;97418.13;4858955;29;20036;-40
2023/05/05 08:27:15;;;;;;;1.75;1.63;;;17.10;99.90;;;16.93;100.00;97416.97;4864570;29;20785;-39
2023/05/05 08:29:40;;;;;;;2.72;2.00;;;17.10;99.90;;;16.98;100.00;97414.91;4858397;29;20438;-38
2023/05/05 08:32:06;;;;;;;2.72;2.00;;;17.10;99.90;;;16.97;100.00;97421.16;4858134;29;20523;-39
2023/05/05 08:34:32;;;;;;;4.13;2.28;;;17.20;99.90;;;16.93;100.00;97411.66;4859718;29;20382;-39
2023/05/05 08:36:57;;;;;;;2.50;2.00;;;17.20;99.90;;;16.94;100.00;97404.50;4847307;29;20473;-40
2023/05/05 08:39:23;;;;;;;2.80;2.08;;;17.10;99.90;;;17.01;100.00;97416.50;4857268;29;20044;-39
2023/05/05 08:41:49;;;;;;;3.60;2.70;;;17.20;99.90;;;17.04;100.00;97412.81;4861376;29;20582;-40
2023/05/05 08:44:14;;;;;;;2.55;2.10;;;17.30;99.90;;;17.20;100.00;97418.03;4856003;29;20040;-40
2023/05/05 08:46:41;;;;;;;3.25;2.40;;;17.40;99.90;;;17.39;100.00;97407.91;4856250;29;20033;-39
2023/05/05 08:49:16;;;;;;;6.85;2.38;;;17.60;99.90;;;17.73;100.00;97411.03;4857033;29;20036;-39
2023/05/05 08:51:44;;;;;;;3.10;1.83;;;18.00;99.90;;;18.04;100.00;97414.38;4848760;29;20045;-40
2023/05/05 08:54:18;;;;;;;3.92;2.47;;;18.30;99.90;;;18.30;100.00;97416.13;4842563;29;20033;-41
2023/05/05 08:56:46;;;;;;;2.97;2.03;;;18.50;99.90;;;18.49;100.00;97410.38;4857642;29;20051;-40
2023/05/05 08:59:13;;;;;;;2.40;1.77;;;18.70;99.90;;;18.63;100.00;97417.44;4861042;29;20356;-40
2023/05/05 09:01:41;;;;;;;2.28;1.92;;;18.90;99.90;;;18.78;100.00;97412.84;4839804;29;20029;-39
2023/05/05 09:04:08;;;;;;;2.55;2.10;;;19.00;99.90;;;18.88;100.00;97416.63;4859444;29;20059;-40
2023/05/05 09:06:35;;;;;;;3.10;2.47;;;19.10;99.90;;;18.90;100.00;97413.84;4853920;29;20036;-39
2023/05/05 09:09:02;;;;;;;4.28;2.30;;;19.30;99.90;;;18.98;100.00;97416.81;4859941;29;21726;-40
2023/05/05 09:11:27;;;;;;;7.63;2.70;;;19.30;99.90;;;19.06;100.00;97417.13;4856603;29;20028;-39
2023/05/05 09:13:54;;;;;;;4.78;2.47;;;19.40;99.90;;;19.10;100.00;97408.91;4854753;29;20135;-39
2023/05/05 09:16:21;;;;;;;3.03;2.47;;;19.40;99.90;;;19.27;100.00;97412.06;4860037;29;20036;-40
2023/05/05 09:18:47;;;;;;;3.80;2.70;;;19.50;99.90;;;19.42;100.00;97419.94;4853868;29;20035;-39
2023/05/05 09:21:24;;;;;;;4.85;2.63;;;19.60;99.90;;;19.48;100.00;97419.50;4858463;29;20044;-39
2023/05/05 09:24:07;;;;;;;4.75;2.63;;;19.70;99.90;;;19.50;100.00;97419.38;4854340;29;20037;-41
2023/05/05 09:26:35;;;;;;;5.63;2.80;;;19.70;99.90;;;19.46;100.00;97414.25;4853997;29;20054;-40
2023/05/05 09:29:02;;;;;;;4.20;2.60;;;19.70;99.90;;;19.54;100.00;97408.34;4857478;29;20223;-40
2023/05/05 09:31:32;;;;;;;3.03;2.20;;;19.80;99.90;;;19.65;100.00;97400.38;4855093;29;20087;-40
2023/05/05 09:33:59;;;;;;;5.47;2.97;;;19.90;99.90;;;19.70;100.00;97402.72;4854330;29;20055;-40
2023/05/05 09:36:47;;;;;;;5.70;3.00;;;20.00;99.90;;;19.83;100.00;97397.34;4860597;29;20028;-40
2023/05/05 09:39:18;;;;;;;3.22;2.65;;;20.10;99.90;;;20.00;100.00;97396.91;4853775;29;20412;-40
2023/05/05 09:41:45;;;;;;;3.92;2.35;;;20.20;99.90;;;20.12;100.00;97391.63;4841730;29;20044;-41
2023/05/05 09:44:14;;;;;;;2.95;2.47;;;20.40;99.90;;;20.32;100.00;97399.00;4854830;29;20048;-40
2023/05/05 09:46:50;;;;;;;6.55;2.58;;;20.60;99.90;;;20.54;100.00;97400.00;4853037;29;20131;-39
2023/05/05 09:49:19;;;;;;;5.68;2.30;;;20.80;99.90;;;20.73;100.00;97397.63;4856225;29;20062;-40
2023/05/05 09:51:46;;;;;;;4.53;2.97;;;21.00;99.90;;;21.01;100.00;97403.50;4857659;29;20513;-39
2023/05/05 09:54:27;;;;;;;3.67;2.25;;;21.30;99.90;;;21.22;97.08;97398.25;4854875;29;20033;-40
2023/05/05 09:56:55;;;;;;;3.70;2.55;;;21.60;99.90;;;21.40;92.50;97395.91;4846723;29;21249;-39
2023/05/05 09:59:22;;;;;;;5.55;2.53;;;21.80;99.90;;;21.46;81.46;97395.47;4849965;29;20063;-40
2023/05/05 10:01:49;;;;;;;4.15;2.85;;;22.00;99.90;;;21.49;83.27;97405.91;4851162;29;20056;-40
2023/05/05 10:04:29;;;;;;;2.72;1.90;;;21.90;99.90;;;21.54;78.03;97401.03;4860841;29;20089;-39
2023/05/05 10:06:56;;;;;;;2.45;2.08;;;21.90;99.90;;;21.67;79.99;97403.56;4848868;29;21374;-41
2023/05/05 10:09:23;;;;;;;2.58;2.00;;;21.90;99.90;;;21.65;75.48;97394.78;4858567;29;20055;-40
2023/05/05 10:11:49;;;;;;;2.47;1.90;;;21.80;99.90;;;21.50;79.49;97388.84;4848441;29;20048;-39
2023/05/05 10:14:17;;;;;;;2.63;1.77;;;21.70;99.90;;;21.16;71.19;97388.88;4837392;29;20102;-39
2023/05/05 10:16:48;;;;;;;1.85;1.48;;;21.50;99.90;;;21.04;75.99;97386.31;4851918;29;20036;-40
2023/05/05 10:19:16;;;;;;;1.80;1.40;;;21.20;99.90;;;20.81;80.76;97372.91;4858259;29;20056;-41
2023/05/05 10:21:48;;;;;;;3.05;1.83;;;21.00;99.90;;;20.63;77.88;97391.28;4852410;29;20539;-41
2023/05/05 10:24:29;;;;;;;;;;;20.80;99.90;;;20.44;84.65;97383.81;4859721;29;20572;-40
2023/05/05 10:26:58;;;;;;;1.90;1.60;;;20.60;99.90;;;20.14;88.02;97387.84;4858154;29;19966;-39
2023/05/05 10:29:51;;;;;;;2.15;1.60;;;20.40;99.90;;;20.08;86.82;97380.31;4839623;29;20088;-39
2023/05/05 10:32:29;;;;;;;2.67;1.58;;;20.30;99.90;;;20.12;79.91;97381.78;4862970;29;20485;-39
2023/05/05 10:35:03;;;;;;;2.70;1.83;;;20.40;99.90;;;20.16;78.36;97382.38;4851359;29;20971;-40
2023/05/05 10:37:29;;;;;;;3.30;1.60;;;20.40;99.90;;;20.21;80.76;97377.53;4853556;29;20223;-39
2023/05/05 10:39:56;;;;;;;1.90;1.33;;;20.30;99.90;;;20.18;82.54;97370.56;4859837;29;20400;-39
2023/05/05 10:42:23;;;;;;;2.15;1.50;;;20.30;99.90;;;20.07;87.82;97359.84;4857345;29;20159;-41
2023/05/05 10:44:50;;;;;;;3.75;2.22;;;20.30;99.90;;;19.98;81.98;97379.28;4842544;29;20032;-39
2023/05/05 10:47:17;;;;;;;3.95;2.05;;;20.20;99.90;;;19.90;85.90;97377.19;4852719;29;20033;-40
2023/05/05 10:50:14;;;;;;;2.05;1.45;;;20.10;99.90;;;19.79;87.09;97375.31;4839002;29;20119;-40
2023/05/05 10:53:12;;;;;;;3.15;1.70;;;19.90;99.90;;;19.69;90.78;97368.06;4833612;29;20096;-40
2023/05/05 10:56:25;;;;;;;2.72;1.73;;;19.90;99.90;;;19.67;95.73;97357.47;4839407;29;20044;-40
2023/05/05 10:58:51;;;;;;;1.80;1.30;;;19.80;99.90;;;19.67;96.59;97354.81;4855495;29;20329;-40
2023/05/05 11:01:33;;;;;;;3.08;1.60;;;19.90;99.90;;;19.72;94.58;97347.28;4865660;29;20703;-42
2023/05/05 11:04:22;;;;;;;2.95;1.17;;;19.90;99.90;;;19.84;97.27;97340.19;4856759;29;20041;-40
2023/05/05 11:07:06;;;;;;;3.90;2.00;;;20.00;99.90;;;20.01;95.39;97339.75;4861954;29;20037;-41
2023/05/05 11:09:35;;;;;;;2.10;1.70;;;20.20;99.90;;;20.12;91.91;97322.03;4857879;29;20808;-40
2023/05/05 11:12:04;;;;;;;2.05;1.58;;;20.50;99.90;;;20.48;93.16;97331.69;4848837;29;20060;-40
2023/05/05 11:14:29;;;;;;;3.05;1.80;;;20.70;99.90;;;20.67;100.00;97339.16;4852611;29;20318;-40
2023/05/05 11:16:55;;;;;;;4.13;1.70;;;20.90;99.90;;;20.85;88.96;97328.78;4856553;29;20688;-40
2023/05/05 11:19:43;;;;;;;1.90;1.55;;;21.10;99.90;;;21.22;88.69;97325.00;4861832;29;20036;-38
2023/05/05 11:22:09;;;;;;;3.85;2.00;;;21.40;99.90;;;21.50;89.94;97321.78;4876421;29;20044;-38
2023/05/05 11:24:35;;;;;;;2.72;1.60;;;21.70;99.90;;;21.65;83.80;97321.50;4870552;29;20040;-40
2023/05/05 11:27:02;;;;;;;2.10;1.30;;;21.90;99.90;;;21.85;81.67;97304.56;4875889;29;20043;-38
2023/05/05 11:30:07;;;;;;;3.90;1.65;;;22.10;99.90;;;22.14;77.62;97319.19;4874531;29;20035;-39
2023/05/05 11:32:32;;;;;;;2.45;1.30;;;22.30;99.90;;;22.39;75.47;97323.31;4879989;29;20124;-39
2023/05/05 11:34:59;;;;;;;3.40;1.77;;;22.60;99.90;;;22.63;73.70;97325.69;4879876;29;20167;-40